• Join FlightAware (Why Join?)
  • Login
  • US Flag 
02:18AM EDT


 

Airport Tracker/Info


-or-


 

Live Flight TrackerFlight Track Log ✈ DAL3982 ✈ 26-Apr-2013 ✈ KATL - CYUL

Flight Track Log - Related Links

Times and Time Zones

All times are in EDT time to prevent confusion due to time zone crossing. See the DAL3982 flight status page for this flight to view local times or setup timezone preferences in your user account.

Time Position Orientation Groundspeed Altitude Reporting Facility
EDT Latitude Longitude Course Direction KTS MPH feet Rate Location/Type
09:45PM 33.6500 -84.3667 North 185 213 2,700  Level Atlanta TRACON
09:46PM 33.6667 -84.3000 73° East 263 303 5,300 2,700 Climbing Atlanta TRACON
09:47PM 33.7333 -84.2667 23° Northeast 289 333 7,900 1,920 Climbing Atlanta TRACON
09:48PM 33.9141 -84.2474 320° Northwest  Level FlightAware Approximate
09:49PM 34.0256 -84.2667 North  Level FlightAware Approximate
09:49PM 33.9464 -84.2717 359° North 337 388 11,500  Level Atlanta Center
09:50PM 34.1429 -84.2667 North  Level FlightAware Approximate
09:50PM 34.0528 -84.2644 North 363 418 14,300  Level Atlanta Center
09:51PM 34.1531 -84.2697 358° North 363 418 15,900 1,440 Climbing Atlanta Center
09:52PM 34.2636 -84.2800 356° North 380 437 17,200 1,320 Climbing Atlanta Center
09:53PM 34.3783 -84.2603 North 397 457 18,600 2,460 Climbing Atlanta Center
09:54PM 34.4850 -84.2353 11° North 401 461 22,200 2,520 Climbing Atlanta Center
09:55PM 34.5872 -84.2128 10° North 381 438 23,700 1,380 Climbing Atlanta Center
09:56PM 34.6792 -84.1903 11° North 373 429 25,000 1,500 Climbing Atlanta Center
09:57PM 34.7833 -84.1678 10° North 368 423 26,800 1,380 Climbing Atlanta Center
09:58PM 34.8878 -84.1400 12° North 373 429 27,800 960 Climbing Atlanta Center
09:59PM 34.9983 -84.1175 North 379 436 28,800 720 Climbing Atlanta Center
10:00PM 35.1111 -84.0869 12° North 396 456 29,300 480 Climbing Atlanta Center
10:01PM 35.2281 -84.0489 15° North 409 471 29,800 540 Climbing Atlanta Center
10:02PM 35.3469 -83.9956 20° North 430 495 30,400 1,080 Climbing Atlanta Center
10:03PM 35.4636 -83.9394 21° North 442 509 32,000 1,260 Climbing Atlanta Center
10:04PM 35.5764 -83.8753 25° Northeast 448 516 33,000 480 Climbing Atlanta Center
10:05PM 35.6950 -83.8086 25° Northeast 454 522 33,000  Level Atlanta Center
10:06PM 35.8158 -83.7442 23° Northeast 459 528 33,000 420 Level Atlanta Center
10:07PM 35.9389 -83.6744 25° Northeast 464 534 33,900 960 Climbing Atlanta Center
10:08PM 36.0597 -83.6072 24° Northeast 464 534 35,000 540 Climbing Atlanta Center
10:09PM 36.1783 -83.5397 25° Northeast 464 534 35,000  Level Atlanta Center
10:10PM 36.3011 -83.4719 24° Northeast 469 540 35,000  Level Atlanta Center
10:13PM 36.5933 -83.3025 25° Northeast 494 568 35,000  Level Indianapolis Center
10:14PM 36.7206 -83.2303 24° Northeast 497 572 35,000  Level Indianapolis Center
10:15PM 36.8472 -83.1578 25° Northeast 496 571 35,000 360 Level Indianapolis Center
10:16PM 36.9692 -83.0678 31° Northeast 499 574 35,800 840 Climbing Indianapolis Center
10:17PM 37.0847 -82.9661 35° Northeast 495 570 36,800 540 Climbing Indianapolis Center
10:18PM 37.1961 -82.8669 35° Northeast 485 558 37,000 60 Climbing Indianapolis Center
10:19PM 37.3078 -82.7672 35° Northeast 487 560 37,000  Level Indianapolis Center
10:20PM 37.4217 -82.6653 35° Northeast 498 573 37,000  Level Indianapolis Center
10:21PM 37.5353 -82.5647 35° Northeast 497 572 37,000  Level Indianapolis Center
10:22PM 37.6661 -82.4456 36° Northeast 494 568 37,000  Level Indianapolis Center
10:23PM 37.7786 -82.3442 35° Northeast 494 568 37,000  Level Indianapolis Center
10:24PM 37.8906 -82.2439 35° Northeast 491 565 37,000  Level Indianapolis Center
10:25PM 37.9836 -82.1583 36° Northeast 493 567 37,000  Level Indianapolis Center
10:26PM 38.1186 -82.0364 35° Northeast 494 568 37,000  Level Indianapolis Center
10:27PM 38.2300 -81.9344 36° Northeast 494 568 37,000  Level Indianapolis Center
10:28PM 38.3422 -81.8317 36° Northeast 495 570 37,000  Level Indianapolis Center
10:29PM 38.4528 -81.7278 36° Northeast 495 570 37,000  Level Indianapolis Center
10:30PM 38.5644 -81.6242 36° Northeast 495 570 37,000  Level Indianapolis Center
10:31PM 38.6725 -81.5233 36° Northeast 493 567 37,000  Level Indianapolis Center
10:32PM 38.7847 -81.4208 35° Northeast 494 568 37,000  Level Indianapolis Center
10:33PM 38.8881 -81.3211 37° Northeast 498 573 37,000  Level Indianapolis Center
10:34PM 39.0194 -81.1969 36° Northeast 489 563 37,000  Level Indianapolis Center
10:35PM 39.1297 -81.0933 36° Northeast 488 562 37,000  Level Indianapolis Center
10:36PM 39.2394 -80.9897 36° Northeast 491 565 37,000  Level Indianapolis Center
10:37PM 39.3489 -80.8831 37° Northeast 490 564 37,000  Level Indianapolis Center
10:38PM 39.4594 -80.7781 36° Northeast 493 567 37,000  Level Indianapolis Center
10:39PM 39.5706 -80.6714 36° Northeast 496 571 37,000  Level Indianapolis Center
10:39PM 39.6356 -80.6100 36° Northeast 496 571 37,000  Level Cleveland Center
10:40PM 39.7442 -80.5075 36° Northeast 496 571 37,000  Level Cleveland Center
10:41PM 39.8564 -80.3992 37° Northeast 496 571 37,000  Level Cleveland Center
10:42PM 39.9667 -80.2906 37° Northeast 496 571 37,000  Level Cleveland Center
10:43PM 40.0728 -80.1842 37° Northeast 491 565 37,000  Level Cleveland Center
10:44PM 40.1828 -80.0775 37° Northeast 480 552 37,000  Level Cleveland Center
10:45PM 40.2906 -79.9681 38° Northeast 487 560 37,000  Level Cleveland Center
10:46PM 40.3983 -79.8633 36° Northeast 487 560 37,000  Level Cleveland Center
10:47PM 40.5081 -79.7556 37° Northeast 487 560 37,000  Level Cleveland Center
10:48PM 40.6158 -79.6478 37° Northeast 487 560 37,000  Level Cleveland Center
10:49PM 40.7253 -79.5364 38° Northeast 487 560 37,000  Level Cleveland Center
10:50PM 40.8328 -79.4278 37° Northeast 482 555 37,000  Level Cleveland Center
10:51PM 40.9400 -79.3214 37° Northeast 482 555 37,000  Level Cleveland Center
10:52PM 41.0472 -79.2119 38° Northeast 482 555 37,000  Level Cleveland Center
10:53PM 41.1417 -79.1164 37° Northeast 488 562 37,000  Level Cleveland Center
10:54PM 41.2486 -79.0061 38° Northeast 480 552 37,000  Level Cleveland Center
10:55PM 41.3578 -78.8956 37° Northeast 485 558 37,000  Level Cleveland Center
10:56PM 41.4622 -78.7850 38° Northeast 485 558 37,000  Level Cleveland Center
10:57PM 41.5689 -78.6736 38° Northeast 485 558 37,000  Level Cleveland Center
10:58PM 41.6756 -78.5650 37° Northeast 485 558 37,000  Level Cleveland Center
10:59PM 41.7817 -78.4472 40° Northeast 485 558 37,000  Level Cleveland Center
11:00PM 41.8900 -78.3378 37° Northeast 485 558 37,000  Level Cleveland Center
11:01PM 41.9942 -78.2278 38° Northeast 485 558 37,000  Level Cleveland Center
11:02PM 42.1125 -78.1031 38° Northeast 485 558 37,000  Level Cleveland Center
11:03PM 42.2183 -77.9897 38° Northeast 485 558 37,000  Level Cleveland Center
11:04PM 42.3242 -77.8786 38° Northeast 485 558 37,000  Level Cleveland Center
11:05PM 42.4097 -77.7850 39° Northeast 485 558 37,000  Level Cleveland Center
11:06PM 42.5375 -77.6497 38° Northeast 485 558 37,000  Level Cleveland Center
11:07PM 42.6431 -77.5347 39° Northeast 485 558 37,000  Level Cleveland Center
11:08PM 42.7483 -77.4164 40° Northeast 485 558 37,000  Level Cleveland Center
11:11PM 42.9711 -77.1742 38° Northeast 489 563 37,000  Level Boston Center
11:12PM 43.0758 -77.0572 39° Northeast 489 563 37,000  Level Boston Center
11:13PM 43.1806 -76.9425 39° Northeast 489 563 37,000  Level Boston Center
11:14PM 43.2875 -76.8247 39° Northeast 489 563 37,000  Level Boston Center
11:15PM 43.3919 -76.7067 39° Northeast 489 563 37,000  Level Boston Center
11:16PM 43.4875 -76.6017 39° Northeast 489 563 37,000  Level Boston Center
11:17PM 43.5919 -76.4825 40° Northeast 489 563 37,000  Level Boston Center
11:18PM 43.6983 -76.3633 39° Northeast 489 563 37,000  Level Boston Center
11:19PM 43.8003 -76.2433 40° Northeast 489 563 37,000  Level Boston Center
11:20PM 43.9042 -76.1231 40° Northeast 489 563 37,000 -300 Level Boston Center
11:21PM 44.0139 -76.0144 35° Northeast 489 563 36,400 -1,500 Descending Boston Center
11:22PM 44.1253 -75.9169 32° Northeast 478 550 34,000 -2,220 Descending Boston Center
11:23PM 44.2411 -75.8106 33° Northeast 466 536 32,000 -1,980 Descending Boston Center
11:24PM 44.3503 -75.7122 33° Northeast 466 536 30,100 -1,740 Descending Boston Center
11:25PM 44.4614 -75.6136 32° Northeast 466 536 28,600 -1,320 Descending Boston Center
11:26PM 44.5703 -75.5144 33° Northeast 471 542 27,500 -1,080 Descending Boston Center
11:27PM 44.6772 -75.4150 33° Northeast 471 542 26,500 -1,080 Descending Boston Center
11:27PM 44.7000 -75.3833 45° Northeast 470 541 26,100 -1,020 Descending Montreal Center
11:28PM 44.7833 -75.2333 52° Northeast 470 541 25,200 -1,140 Descending Montreal Center
11:29PM 44.8667 -75.1000 49° Northeast 470 541 23,900 -1,620 Descending Montreal Center
11:30PM 44.9500 -74.9500 52° Northeast 470 541 22,000 -2,040 Descending Montreal Center
11:31PM 45.0167 -74.8000 58° Northeast 450 518 19,900 -2,100 Descending Montreal Center
11:32PM 45.0833 -74.6667 55° Northeast 430 495 17,900 -1,620 Descending Montreal Center
11:33PM 45.1500 -74.5167 58° Northeast 410 472 16,700 -1,200 Descending Montreal Center
11:34PM 45.2000 -74.4000 59° Northeast 400 460 15,500 -1,320 Descending Montreal Center
11:35PM 45.2667 -74.2500 58° Northeast 400 460 14,100 -1,380 Descending Montreal Center
11:36PM 45.3333 -74.1333 51° Northeast 390 449 12,800 -1,980 Descending Montreal Center
11:37PM 45.3833 -74.0167 59° Northeast 350 403 10,200 -1,980 Descending Montreal Center
11:38PM 45.4333 -73.9333 49° Northeast 290 334 8,900 -1,800 Descending Montreal Center
11:39PM 45.5000 -73.8667 35° Northeast 260 299 6,600 -2,220 Descending Montreal Center
11:40PM 45.5500 -73.7833 49° Northeast 260 299 4,500 -1,620 Descending Montreal Center
11:41PM 45.5833 -73.7167 54° Northeast 210 242 3,400 -840 Descending Montreal Center
11:42PM 45.5667 -73.6667 115° Southeast 180 207 2,900 -540 Descending Montreal Center